Map

Track Data

SID SEASON NUMBER BASIN SUBBASIN NAME ISO_TIME NATURE LAT LON WMO_WIND WMO_PRES WMO_AGENCY TRACK_TYPE DIST2LAND LANDFALL IFLAG USA_AGENCY USA_ATCF_ID USA_LAT USA_LON USA_RECORD USA_STATUS USA_WIND USA_PRES USA_SSHS USA_R34_NE USA_R34_SE USA_R34_SW USA_R34_NW USA_R50_NE USA_R50_SE USA_R50_SW USA_R50_NW USA_R64_NE USA_R64_SE USA_R64_SW USA_R64_NW USA_POCI USA_ROCI USA_RMW USA_EYE TOKYO_LAT TOKYO_LON TOKYO_GRADE TOKYO_WIND TOKYO_PRES TOKYO_R50_DIR TOKYO_R50_LONG TOKYO_R50_SHORT TOKYO_R30_DIR TOKYO_R30_LONG TOKYO_R30_SHORT TOKYO_LAND CMA_LAT CMA_LON CMA_CAT CMA_WIND CMA_PRES HKO_LAT HKO_LON HKO_CAT HKO_WIND HKO_PRES NEWDELHI_LAT NEWDELHI_LON NEWDELHI_GRADE NEWDELHI_WIND NEWDELHI_PRES NEWDELHI_CI NEWDELHI_DP NEWDELHI_POCI REUNION_LAT REUNION_LON REUNION_TYPE REUNION_WIND REUNION_PRES REUNION_TNUM REUNION_CI REUNION_RMW REUNION_R34_NE REUNION_R34_SE REUNION_R34_SW REUNION_R34_NW REUNION_R50_NE REUNION_R50_SE REUNION_R50_SW REUNION_R50_NW REUNION_R64_NE REUNION_R64_SE REUNION_R64_SW REUNION_R64_NW BOM_LAT BOM_LON BOM_TYPE BOM_WIND BOM_PRES BOM_TNUM BOM_CI BOM_RMW BOM_R34_NE BOM_R34_SE BOM_R34_SW BOM_R34_NW BOM_R50_NE BOM_R50_SE BOM_R50_SW BOM_R50_NW BOM_R64_NE BOM_R64_SE BOM_R64_SW BOM_R64_NW BOM_ROCI BOM_POCI BOM_EYE BOM_POS_METHOD BOM_PRES_METHOD NADI_LAT NADI_LON NADI_CAT NADI_WIND NADI_PRES WELLINGTON_LAT WELLINGTON_LON WELLINGTON_WIND WELLINGTON_PRES DS824_LAT DS824_LON DS824_STAGE DS824_WIND DS824_PRES TD9636_LAT TD9636_LON TD9636_STAGE TD9636_WIND TD9636_PRES TD9635_LAT TD9635_LON TD9635_WIND TD9635_PRES TD9635_ROCI NEUMANN_LAT NEUMANN_LON NEUMANN_CLASS NEUMANN_WIND NEUMANN_PRES MLC_LAT MLC_LON MLC_CLASS MLC_WIND MLC_PRES USA_GUST BOM_GUST BOM_GUST_PER REUNION_GUST REUNION_GUST_PER USA_SEAHGT USA_SEARAD_NE USA_SEARAD_SE USA_SEARAD_SW USA_SEARAD_NW STORM_SPEED STORM_DIR
1895271N19274 1895 37 NA CS NOT_NAMED 1895-09-28 00:00:00 TS 19.3000 -86.0000 35 hurdat_atl main 148 115 O_____________ hurdat_atl AL031895 19.3000 -86.0000 TS 35 0 7 297
1895271N19274 1895 37 NA CS NOT_NAMED 1895-09-28 03:00:00 TS 19.4527 -86.3098 main 115 84 P_____________ AL031895 19.4527 -86.3098 TS 35 0 6 298
1895271N19274 1895 37 NA CS NOT_NAMED 1895-09-28 06:00:00 TS 19.6000 -86.6000 35 hurdat_atl main 84 56 O_____________ hurdat_atl AL031895 19.6000 -86.6000 TS 35 0 6 299
1895271N19274 1895 37 NA CS NOT_NAMED 1895-09-28 09:00:00 TS 19.7423 -86.8702 main 56 31 P_____________ AL031895 19.7423 -86.8702 TS 35 0 6 298
1895271N19274 1895 37 NA CS NOT_NAMED 1895-09-28 12:00:00 TS 19.9000 -87.2000 35 hurdat_atl main 31 0 O_____________ hurdat_atl AL031895 19.9000 -87.2000 TS 35 0 8 295
1895271N19274 1895 37 NA NA NOT_NAMED 1895-09-28 15:00:00 TS 20.0927 -87.6849 main 0 0 P_____________ AL031895 20.0927 -87.6849 TS 32 -1 10 293
1895271N19274 1895 37 NA NA NOT_NAMED 1895-09-28 18:00:00 TS 20.3000 -88.2000 30 hurdat_atl main 0 0 O_____________ hurdat_atl AL031895 20.3000 -88.2000 TD 30 -1 10 294
1895271N19274 1895 37 NA NA NOT_NAMED 1895-09-28 21:00:00 TS 20.4924 -88.6376 main 0 0 P_____________ AL031895 20.4924 -88.6376 TD 30 -1 9 298
1895271N19274 1895 37 NA NA NOT_NAMED 1895-09-29 00:00:00 TS 20.7000 -89.0000 30 hurdat_atl main 0 0 O_____________ hurdat_atl AL031895 20.7000 -89.0000 TD 30 -1 8 307
1895271N19274 1895 37 NA NA NOT_NAMED 1895-09-29 03:00:00 TS 20.9499 -89.2950 main 0 0 P_____________ AL031895 20.9499 -89.2950 TD 30 -1 7 317
1895271N19274 1895 37 NA NA NOT_NAMED 1895-09-29 06:00:00 TS 21.2000 -89.5000 30 hurdat_atl main 0 0 O_____________ hurdat_atl AL031895 21.2000 -89.5000 TD 30 -1 6 325
1895271N19274 1895 37 NA GM NOT_NAMED 1895-09-29 09:00:00 TS 21.3999 -89.6376 main 22 22 P_____________ AL031895 21.3999 -89.6376 TD 35 0 4 335
1895271N19274 1895 37 NA GM NOT_NAMED 1895-09-29 12:00:00 TS 21.6000 -89.7000 40 hurdat_atl main 44 44 O_____________ hurdat_atl AL031895 21.6000 -89.7000 TS 40 0 4 348
1895271N19274 1895 37 NA GM NOT_NAMED 1895-09-29 15:00:00 TS 21.8350 -89.7300 main 67 67 P_____________ AL031895 21.8350 -89.7300 TS 40 0 5 2
1895271N19274 1895 37 NA GM NOT_NAMED 1895-09-29 18:00:00 TS 22.1000 -89.7000 40 hurdat_atl main 98 98 O_____________ hurdat_atl AL031895 22.1000 -89.7000 TS 40 0 6 10
1895271N19274 1895 37 NA GM NOT_NAMED 1895-09-29 21:00:00 TS 22.4000 -89.6225 main 126 126 P_____________ AL031895 22.4000 -89.6225 TS 42 0 6 17
1895271N19274 1895 37 NA GM NOT_NAMED 1895-09-30 00:00:00 TS 22.7000 -89.5000 45 hurdat_atl main 157 157 O_____________ hurdat_atl AL031895 22.7000 -89.5000 TS 45 0 6 21
1895271N19274 1895 37 NA GM NOT_NAMED 1895-09-30 03:00:00 TS 22.9574 -89.3873 main 186 182 P_____________ AL031895 22.9574 -89.3873 TS 45 0 6 29
1895271N19274 1895 37 NA GM NOT_NAMED 1895-09-30 06:00:00 TS 23.2000 -89.2000 45 hurdat_atl main 199 199 O_____________ hurdat_atl AL031895 23.2000 -89.2000 TS 45 0 7 39
1895271N19274 1895 37 NA GM NOT_NAMED 1895-09-30 09:00:00 TS 23.4796 -88.9326 main 225 225 P_____________ AL031895 23.4796 -88.9326 TS 47 0 8 52
1895271N19274 1895 37 NA GM NOT_NAMED 1895-09-30 12:00:00 TS 23.7000 -88.5000 50 hurdat_atl main 245 245 O_____________ hurdat_atl AL031895 23.7000 -88.5000 TS 50 0 10 73
1895271N19274 1895 37 NA GM NOT_NAMED 1895-09-30 15:00:00 TS 23.7879 -87.8448 main 257 257 P_____________ AL031895 23.7879 -87.8448 TS 50 0 13 86
1895271N19274 1895 37 NA GM NOT_NAMED 1895-09-30 18:00:00 TS 23.8000 -87.1000 50 hurdat_atl main 257 257 O_____________ hurdat_atl AL031895 23.8000 -87.1000 TS 50 0 13 89
1895271N19274 1895 37 NA GM NOT_NAMED 1895-09-30 21:00:00 TS 23.8071 -86.4424 main 256 218 P_____________ AL031895 23.8071 -86.4424 TS 50 0 12 90
1895271N19274 1895 37 NA GM NOT_NAMED 1895-10-01 00:00:00 TS 23.8000 -85.8000 50 hurdat_atl main 218 173 O_____________ hurdat_atl AL031895 23.8000 -85.8000 TS 50 0 12 91
1895271N19274 1895 37 NA GM NOT_NAMED 1895-10-01 03:00:00 TS 23.7924 -85.1349 main 166 133 P_____________ AL031895 23.7924 -85.1349 TS 50 0 12 90
1895271N19274 1895 37 NA GM NOT_NAMED 1895-10-01 06:00:00 TS 23.8000 -84.5000 50 hurdat_atl main 133 115 O_____________ hurdat_atl AL031895 23.8000 -84.5000 TS 50 0 11 87
1895271N19274 1895 37 NA GM NOT_NAMED 1895-10-01 09:00:00 TS 23.8423 -83.9201 main 112 111 P_____________ AL031895 23.8423 -83.9201 TS 50 0 10 84
1895271N19274 1895 37 NA GM NOT_NAMED 1895-10-01 12:00:00 TS 23.9000 -83.4000 50 hurdat_atl main 111 102 O_____________ hurdat_atl AL031895 23.9000 -83.4000 TS 50 0 9 84
1895271N19274 1895 37 NA NA NOT_NAMED 1895-10-01 15:00:00 TS 23.9422 -82.9424 main 98 98 P_____________ AL031895 23.9422 -82.9424 TS 50 0 8 83
1895271N19274 1895 37 NA NA NOT_NAMED 1895-10-01 18:00:00 TS 24.0000 -82.5000 50 hurdat_atl main 100 100 O_____________ hurdat_atl AL031895 24.0000 -82.5000 TS 50 0 9 81
1895271N19274 1895 37 NA NA NOT_NAMED 1895-10-01 21:00:00 TS 24.0850 -81.9925 main 111 108 P_____________ AL031895 24.0850 -81.9925 TS 50 0 9 78
1895271N19274 1895 37 NA NA NOT_NAMED 1895-10-02 00:00:00 TS 24.2000 -81.5000 50 hurdat_atl main 108 89 O_____________ hurdat_atl AL031895 24.2000 -81.5000 TS 50 0 9 73
1895271N19274 1895 37 NA NA NOT_NAMED 1895-10-02 03:00:00 TS 24.3348 -81.0849 main 89 67 P_____________ AL031895 24.3348 -81.0849 TS 50 0 8 68
1895271N19274 1895 37 NA NA NOT_NAMED 1895-10-02 06:00:00 TS 24.5000 -80.7000 50 hurdat_atl main 67 44 O_____________ hurdat_atl AL031895 24.5000 -80.7000 TS 50 0 8 63
1895271N19274 1895 37 NA NA NOT_NAMED 1895-10-02 09:00:00 TS 24.7000 -80.2925 main 45 39 P_____________ AL031895 24.7000 -80.2925 TS 50 0 8 61
1895271N19274 1895 37 NA NA NOT_NAMED 1895-10-02 12:00:00 TS 24.9000 -79.9000 50 hurdat_atl main 55 55 O_____________ hurdat_atl AL031895 24.9000 -79.9000 TS 50 0 8 63
1895271N19274 1895 37 NA NA NOT_NAMED 1895-10-02 15:00:00 TS 25.0499 -79.5348 main 91 90 P_____________ AL031895 25.0499 -79.5348 TS 50 0 7 65
1895271N19274 1895 37 NA NA NOT_NAMED 1895-10-02 18:00:00 TS 25.2000 -79.2000 50 hurdat_atl main 97 82 O_____________ hurdat_atl AL031895 25.2000 -79.2000 TS 50 0 7 61
1895271N19274 1895 37 NA NA NOT_NAMED 1895-10-02 21:00:00 TS 25.3774 -78.8923 main 87 75 P_____________ AL031895 25.3774 -78.8923 TS 50 0 7 54
1895271N19274 1895 37 NA NA NOT_NAMED 1895-10-03 00:00:00 TS 25.6000 -78.6000 50 hurdat_atl main 75 73 O_____________ hurdat_atl AL031895 25.6000 -78.6000 TS 50 0 7 47
1895271N19274 1895 37 NA NA NOT_NAMED 1895-10-03 03:00:00 TS 25.8698 -78.3147 main 91 89 P_____________ AL031895 25.8698 -78.3147 TS 50 0 8 42
1895271N19274 1895 37 NA NA NOT_NAMED 1895-10-03 06:00:00 TS 26.2000 -78.0000 50 hurdat_atl main 122 122 O_____________ hurdat_atl AL031895 26.2000 -78.0000 TS 50 0 9 41
1895271N19274 1895 37 NA NA NOT_NAMED 1895-10-03 09:00:00 TS 26.5699 -77.6296 main 172 172 P_____________ AL031895 26.5699 -77.6296 TS 50 0 11 42
1895271N19274 1895 37 NA NA NOT_NAMED 1895-10-03 12:00:00 TS 27.0000 -77.2000 50 hurdat_atl main 226 226 O_____________ hurdat_atl AL031895 27.0000 -77.2000 TS 50 0 12 41
1895271N19274 1895 37 NA NA NOT_NAMED 1895-10-03 15:00:00 TS 27.4849 -76.7223 main 297 297 P_____________ AL031895 27.4849 -76.7223 TS 50 0 13 42
1895271N19274 1895 37 NA NA NOT_NAMED 1895-10-03 18:00:00 TS 28.0000 -76.2000 50 hurdat_atl main 370 370 O_____________ hurdat_atl AL031895 28.0000 -76.2000 TS 50 0 14 43
1895271N19274 1895 37 NA NA NOT_NAMED 1895-10-03 21:00:00 TS 28.4924 -75.6570 main 442 442 P_____________ AL031895 28.4924 -75.6570 TS 50 0 14 44
1895271N19274 1895 37 NA NA NOT_NAMED 1895-10-04 00:00:00 TS 29.0000 -75.1000 50 hurdat_atl main 521 521 O_____________ hurdat_atl AL031895 29.0000 -75.1000 TS 50 0 14 42
1895271N19274 1895 37 NA NA NOT_NAMED 1895-10-04 03:00:00 TS 29.5498 -74.5496 main 591 563 P_____________ AL031895 29.5498 -74.5496 TS 50 0 15 41
1895271N19274 1895 37 NA NA NOT_NAMED 1895-10-04 06:00:00 TS 30.1000 -74.0000 50 hurdat_atl main 563 536 O_____________ hurdat_atl AL031895 30.1000 -74.0000 TS 50 0 14 42
1895271N19274 1895 37 NA NA NOT_NAMED 1895-10-04 09:00:00 TS 30.6074 -73.4419 main 541 523 P_____________ AL031895 30.6074 -73.4419 TS 50 0 14 43
1895271N19274 1895 37 NA NA NOT_NAMED 1895-10-04 12:00:00 TS 31.1000 -72.9000 50 hurdat_atl main 523 514 O_____________ hurdat_atl AL031895 31.1000 -72.9000 TS 50 0 14 42
1895271N19274 1895 37 NA NA NOT_NAMED 1895-10-04 15:00:00 TS 31.6073 -72.3846 main 514 512 P_____________ AL031895 31.6073 -72.3846 TS 50 0 13 40
1895271N19274 1895 37 NA NA NOT_NAMED 1895-10-04 18:00:00 TS 32.1000 -71.9000 50 hurdat_atl main 512 512 O_____________ hurdat_atl AL031895 32.1000 -71.9000 TS 50 0 12 40
1895271N19274 1895 37 NA NA NOT_NAMED 1895-10-04 21:00:00 TS 32.5497 -71.4491 main 524 516 P_____________ AL031895 32.5497 -71.4491 TS 50 0 12 40
1895271N19274 1895 37 NA NA NOT_NAMED 1895-10-05 00:00:00 TS 33.0000 -71.0000 50 hurdat_atl main 516 516 O_____________ hurdat_atl AL031895 33.0000 -71.0000 TS 50 0 12 40
1895271N19274 1895 37 NA NA NOT_NAMED 1895-10-05 03:00:00 TS 33.4924 -70.5072 main 523 523 P_____________ AL031895 33.4924 -70.5072 TS 50 0 13 40
1895271N19274 1895 37 NA NA NOT_NAMED 1895-10-05 06:00:00 TS 34.0000 -70.0000 50 hurdat_atl main 539 539 O_____________ hurdat_atl AL031895 34.0000 -70.0000 TS 50 0 13 40
1895271N19274 1895 37 NA NA NOT_NAMED 1895-10-05 09:00:00 TS 34.4846 -69.5138 main 563 563 P_____________ AL031895 34.4846 -69.5138 TS 50 0 13 40
1895271N19274 1895 37 NA NA NOT_NAMED 1895-10-05 12:00:00 TS 35.0000 -69.0000 50 hurdat_atl main 594 594 O_____________ hurdat_atl AL031895 35.0000 -69.0000 TS 50 0 14 39
1895271N19274 1895 37 NA NA NOT_NAMED 1895-10-05 15:00:00 TS 35.5697 -68.4290 main 639 639 P_____________ AL031895 35.5697 -68.4290 TS 50 0 15 39
1895271N19274 1895 37 NA NA NOT_NAMED 1895-10-05 18:00:00 TS 36.2000 -67.8000 50 hurdat_atl main 640 595 O_____________ hurdat_atl AL031895 36.2000 -67.8000 TS 50 0 17 39
1895271N19274 1895 37 NA NA NOT_NAMED 1895-10-05 21:00:00 TS 36.8696 -67.1286 main 589 550 P_____________ AL031895 36.8696 -67.1286 TS 50 0 18 39
1895271N19274 1895 37 NA NA NOT_NAMED 1895-10-06 00:00:00 TS 37.6000 -66.4000 50 hurdat_atl main 550 525 O_____________ hurdat_atl AL031895 37.6000 -66.4000 TS 50 0 19 38
1895271N19274 1895 37 NA NA NOT_NAMED 1895-10-06 03:00:00 TS 38.3770 -65.6283 main 523 480 P_____________ AL031895 38.3770 -65.6283 TS 50 0 20 38
1895271N19274 1895 37 NA NA NOT_NAMED 1895-10-06 06:00:00 TS 39.2000 -64.8000 50 hurdat_atl main 480 403 O_____________ hurdat_atl AL031895 39.2000 -64.8000 TS 50 0 21 38
1895271N19274 1895 37 NA NA NOT_NAMED 1895-10-06 09:00:00 TS 40.0420 -63.9208 main 406 340 P_____________ AL031895 40.0420 -63.9208 TS 50 0 22 39
1895271N19274 1895 37 NA NA NOT_NAMED 1895-10-06 12:00:00 TS 40.9000 -63.0000 50 hurdat_atl main 345 318 O_____________ hurdat_atl AL031895 40.9000 -63.0000 TS 50 0 22 39
1895271N19274 1895 37 NA NA NOT_NAMED 1895-10-06 15:00:00 TS 41.7415 -62.0693 main 320 265 P_____________ AL031895 41.7415 -62.0693 TS 47 0 22 40
1895271N19274 1895 37 NA NA NOT_NAMED 1895-10-06 18:00:00 TS 42.6000 -61.1000 45 hurdat_atl main 269 212 O_____________ hurdat_atl AL031895 42.6000 -61.1000 TS 45 0 23 40
1895271N19274 1895 37 NA NA NOT_NAMED 1895-10-06 21:00:00 TS 43.4843 -60.0696 main 204 176 P_____________ AL031895 43.4843 -60.0696 TS 42 0 24 40
1895271N19274 1895 37 NA NA NOT_NAMED 1895-10-07 00:00:00 TS 44.4000 -59.0000 40 hurdat_atl main 172 159 O_____________ hurdat_atl AL031895 44.4000 -59.0000 TS 40 0 24 40
1895271N19274 1895 37 NA NA NOT_NAMED 1895-10-07 03:00:00 TS 45.3413 -57.9188 main 177 112 P_____________ AL031895 45.3413 -57.9188 TS 40 0 24 39
1895271N19274 1895 37 NA NA NOT_NAMED 1895-10-07 06:00:00 TS 46.3000 -56.8000 40 hurdat_atl main 98 0 O_____________ hurdat_atl AL031895 46.3000 -56.8000 TS 40 0 25 40
1895271N19274 1895 37 NA NA NOT_NAMED 1895-10-07 09:00:00 TS 47.2552 -55.6265 main 11 0 P_____________ AL031895 47.2552 -55.6265 TS 40 0 25 41
1895271N19274 1895 37 NA NA NOT_NAMED 1895-10-07 12:00:00 TS 48.2000 -54.4000 40 hurdat_atl main 0 O_____________ hurdat_atl AL031895 48.2000 -54.4000 TS 40 0 25 41

About IBTrACS Database

This database is a web-friendly format of International Best Track Archive for Climate Stewardship (IBTrACS), a global best track data archive curated by NOAA dating back to 1842.

Updated: 2021-12-08